createdAt,value
2022-12-24T13:36:56.223Z,5944.32
2022-12-24T13:37:56.496Z,5852.16
2022-12-24T13:38:58.268Z,6036.48
2022-12-24T13:39:58.085Z,5990.40
2022-12-24T13:40:58.180Z,5944.32
2022-12-24T13:41:58.655Z,5644.80
2022-12-24T13:42:59.582Z,5414.40
2022-12-24T13:44:00.469Z,5414.40
2022-12-24T13:45:01.465Z,5253.12
2022-12-24T13:46:02.369Z,5368.32
2022-12-24T13:47:02.544Z,4953.60
2022-12-24T13:48:02.916Z,4423.68
2022-12-24T13:49:03.352Z,3732.48
2022-12-24T13:50:03.922Z,3179.52
2022-12-24T13:51:04.079Z,3087.36
2022-12-24T13:52:04.962Z,3363.84
2022-12-24T13:53:05.135Z,3571.20
2022-12-24T13:54:05.469Z,3386.88
2022-12-24T13:55:05.757Z,3179.52
2022-12-24T13:56:05.967Z,3456.00
2022-12-24T13:57:06.308Z,3294.72
2022-12-24T13:57:17.441Z,3156.48
2022-12-24T13:58:17.669Z,2845.44
2022-12-24T13:59:18.190Z,2730.24
2022-12-24T14:00:18.614Z,2672.64
2022-12-24T14:01:19.228Z,2730.24
2022-12-24T14:02:20.018Z,2949.12
2022-12-24T14:03:20.195Z,3064.32
2022-12-24T14:04:20.817Z,3340.80
2022-12-24T14:05:22.043Z,3340.80
2022-12-24T14:06:22.134Z,3133.44
2022-12-24T14:07:22.442Z,2972.16
2022-12-24T14:08:22.685Z,2868.48
2022-12-24T14:09:22.995Z,2822.40
2022-12-24T14:10:23.581Z,2592.00
2022-12-24T14:11:23.867Z,2442.24
2022-12-24T14:12:27.773Z,2522.88
2022-12-24T14:13:24.561Z,2615.04
2022-12-24T14:14:24.928Z,2592.00
2022-12-24T14:15:24.970Z,2603.52
2022-12-24T14:16:25.539Z,2649.60
2022-12-24T14:17:25.803Z,2718.72
2022-12-24T14:19:37.859Z,3294.72
2022-12-24T14:20:37.705Z,3479.04
2022-12-24T14:21:38.000Z,3409.92
2022-12-24T14:22:38.266Z,3294.72
2022-12-24T14:23:38.637Z,3525.12
2022-12-24T14:24:38.980Z,3778.56
2022-12-24T14:25:39.252Z,3340.80
2022-12-24T14:26:39.744Z,3133.44
2022-12-24T14:27:39.998Z,2557.44
2022-12-24T14:28:40.218Z,2131.20
2022-12-24T14:29:40.484Z,1923.84
2022-12-24T14:30:40.939Z,1866.24
2022-12-24T14:31:41.248Z,2016.00
2022-12-24T14:32:41.716Z,2073.60
2022-12-24T14:33:42.147Z,2050.56
2022-12-24T14:34:42.510Z,2016.00
2022-12-24T14:35:42.796Z,2004.48
2022-12-24T14:36:43.129Z,1969.92
2022-12-24T14:37:43.530Z,1854.72
2022-12-24T14:38:43.874Z,1797.12
2022-12-24T14:39:44.344Z,1635.84
2022-12-24T14:40:45.157Z,1474.56
2022-12-24T14:41:45.190Z,1388.16
2022-12-24T14:42:45.834Z,1272.96
2022-12-24T14:43:46.716Z,1100.16
2022-12-24T14:44:47.527Z,1036.80
2022-12-24T14:45:47.699Z,990.72
2022-12-24T14:46:48.291Z,933.12
2022-12-24T14:47:48.857Z,887.04
2022-12-24T14:48:49.740Z,829.44
2022-12-24T14:49:00.928Z,754.56
2022-12-24T14:50:01.340Z,737.28
2022-12-24T14:51:02.042Z,725.76
2022-12-24T14:52:02.059Z,711.36
2022-12-24T14:53:06.322Z,691.20
2022-12-24T14:54:02.975Z,673.92
2022-12-24T14:55:03.677Z,636.48
2022-12-24T14:56:04.236Z,578.88
2022-12-24T14:57:04.649Z,524.16
2022-12-24T14:58:05.156Z,478.08
2022-12-24T14:59:05.824Z,449.28
2022-12-24T15:00:06.398Z,443.52
2022-12-24T15:01:06.815Z,437.76
2022-12-24T15:02:07.107Z,429.12
2022-12-24T15:03:07.359Z,411.84
2022-12-24T15:04:07.761Z,394.56
2022-12-24T15:05:08.163Z,394.56
2022-12-24T15:06:08.179Z,406.08
2022-12-24T15:07:08.690Z,437.76
